Alamo, ND

6:35 AM CST on November 15, 2019 (GMT -0600)
KNDALAMO3 | | Change Station
Active Advisory: Dense Fog Advisory

Elev 2090 ft 48.49 °N, 103.51 °W | Updated 5 minutes ago

Mostly Cloudy
Mostly Cloudy
27 °F
Feels Like 27 °F
N
0
Wind Variable Wind from SSE
Gusts 8.0 mph

Today
High -- | Low -- °F
--% Chance of Precip.
Yesterday
High -- | Low -- °F
Precip. -- in
Pressure 30.05 in
Visibility 3.0 miles
Clouds Overcast 300 ft
Windchill 27 °F
Dew Point 26 °F
Humidity 95%
Rainfall 0.00 in
Snow Depth Not available.
8:01 AM 5:14 PM
Waning Gibbous, 91% visible
METAR KD50 151215Z AUTO 13006KT 3SM BR OVC003 M02/M02 A3005 RMK AO2
Pressure 30.05 in
Visibility 3.0 miles
Clouds Overcast 300 ft
Windchill 27 °F
Dew Point 26 °F
Humidity 95%
Rainfall 0.00 in
Snow Depth Not available.
8:01 AM 5:14 PM
Waning Gibbous, 91% visible
METAR KD50 151215Z AUTO 13006KT 3SM BR OVC003 M02/M02 A3005 RMK AO2

Get Your Daily Forecast Email!

Thanks for signing up!

Be on the lookout for a verification email in your inbox.

You'll start receiving severe weather alerts in your inbox..

×

10-Day Weather Forecast

Almanac

Astronomy

Nov. 15, 2019 Rise Set
Actual Time
Civil Twilight
Nautical Twilight
Astronomical Twilight
Moon
Length of Visible Light
Length of Day
Tomorrow will be .
, % of the Moon is Illuminated

Today's Extremes

State Highs State Lows

Community

WunderPhotos

Category 6

Welcome to Category 6. This is the collective home for Weather Underground's featured writeups by Dr. Jeff Masters (right), Bob Henson (left), Chris Burt, and other regular contributors.

Nearby

Air Quality

  Air Quality AQ Index Pollutant
Not available.

Snow Depth

Station Depth Elevation

Earthquake Activity

City Distance Mag. Time & Date
Minimum magnitude displayed is 2.5.

Coastal Water Temperatures

Place Temperature

Stations

Nearby Weather Stations

Station Location Temp. Windchill Dew Point Humidity Wind Precip. Elev Updated Type
                   

Watches & Warnings

Dense Fog Advisory
Issued: 5:44 AM CST Nov. 15, 2019 – National Weather Service

... Dense fog advisory remains in effect until noon CST today...

* what... visibility one quarter mile or less in dense fog.

* Where... Ward and McLean counties.

* When... until noon CST Friday.

* Impacts... hazardous driving conditions due to low visibility.

* Additional details... patchy light freezing drizzle may
accompany the dense fog at times.

Precautionary/preparedness actions...

If driving, slow down, use your headlights, and leave plenty of
distance ahead of you.